<?xml version="1.0" encoding="utf-8"?>
<gpx xmlns:xsi="http://www.w3.org/2001/XMLSchema-instance" xmlns:xsd="http://www.w3.org/2001/XMLSchema" version="1.1" creator="Shapelink.com" xmlns="http://www.topografix.com/GPX/1/1" xmlns:gpxtpx="http://www.garmin.com/xmlschemas/TrackPointExtension/v1">
  <metadata>
    <name>Cycling 13.28 km, 2020-07-03</name>
    <desc></desc>
    <author><name>Marian Moron</name></author> 
    <time>2020-07-03T18:36:12Z</time>
  </metadata>
  <trk>
    <name>Cycling 13.28 km, 2020-07-03</name>
    <trkseg>
      <trkpt lat="51.228580322819" lon="4.449289629547">
        <ele>0</ele>
        <time>2020-07-03T18:36:12Z</time>
      </trkpt>
      <trkpt lat="51.228941750347" lon="4.448646067265">
        <ele>0</ele>
        <time>2020-07-03T18:36:43Z</time>
      </trkpt>
      <trkpt lat="51.22903537617" lon="4.44848890664">
        <ele>0</ele>
        <time>2020-07-03T18:36:55Z</time>
      </trkpt>
      <trkpt lat="51.228985755322" lon="4.448241053857">
        <ele>0</ele>
        <time>2020-07-03T18:37:14Z</time>
      </trkpt>
      <trkpt lat="51.228603624501" lon="4.447597240118">
        <ele>0</ele>
        <time>2020-07-03T18:37:41Z</time>
      </trkpt>
      <trkpt lat="51.228372619337" lon="4.447145539527">
        <ele>0</ele>
        <time>2020-07-03T18:37:54Z</time>
      </trkpt>
      <trkpt lat="51.228695322487" lon="4.446383792455">
        <ele>1.6</ele>
        <time>2020-07-03T18:38:13Z</time>
      </trkpt>
      <trkpt lat="51.228894224974" lon="4.445977437943">
        <ele>2.4</ele>
        <time>2020-07-03T18:38:28Z</time>
      </trkpt>
      <trkpt lat="51.228941834166" lon="4.445856906221">
        <ele>2.2</ele>
        <time>2020-07-03T18:38:40Z</time>
      </trkpt>
      <trkpt lat="51.229420356837" lon="4.445360362465">
        <ele>0</ele>
        <time>2020-07-03T18:39:00Z</time>
      </trkpt>
      <trkpt lat="51.22972688292" lon="4.444847054909">
        <ele>0</ele>
        <time>2020-07-03T18:39:15Z</time>
      </trkpt>
      <trkpt lat="51.229500403982" lon="4.444044068889">
        <ele>0</ele>
        <time>2020-07-03T18:39:38Z</time>
      </trkpt>
      <trkpt lat="51.229428738737" lon="4.443812979906">
        <ele>0</ele>
        <time>2020-07-03T18:39:46Z</time>
      </trkpt>
      <trkpt lat="51.228910821136" lon="4.44409511466">
        <ele>0</ele>
        <time>2020-07-03T18:40:07Z</time>
      </trkpt>
      <trkpt lat="51.228534390007" lon="4.444651421363">
        <ele>0</ele>
        <time>2020-07-03T18:40:22Z</time>
      </trkpt>
      <trkpt lat="51.228483176598" lon="4.444742951711">
        <ele>0</ele>
        <time>2020-07-03T18:40:25Z</time>
      </trkpt>
      <trkpt lat="51.228460461649" lon="4.444800451545">
        <ele>0</ele>
        <time>2020-07-03T18:40:27Z</time>
      </trkpt>
      <trkpt lat="51.22817623142" lon="4.445582398996">
        <ele>0</ele>
        <time>2020-07-03T18:40:47Z</time>
      </trkpt>
      <trkpt lat="51.227800554662" lon="4.44622411726">
        <ele>0</ele>
        <time>2020-07-03T18:41:02Z</time>
      </trkpt>
      <trkpt lat="51.227397385272" lon="4.446815125029">
        <ele>0</ele>
        <time>2020-07-03T18:41:17Z</time>
      </trkpt>
      <trkpt lat="51.226980553385" lon="4.447432032869">
        <ele>0</ele>
        <time>2020-07-03T18:41:32Z</time>
      </trkpt>
      <trkpt lat="51.226559614367" lon="4.448048605433">
        <ele>0</ele>
        <time>2020-07-03T18:41:48Z</time>
      </trkpt>
      <trkpt lat="51.226261218727" lon="4.448760144924">
        <ele>0</ele>
        <time>2020-07-03T18:42:02Z</time>
      </trkpt>
      <trkpt lat="51.225944466726" lon="4.449463051058">
        <ele>0.2</ele>
        <time>2020-07-03T18:42:20Z</time>
      </trkpt>
      <trkpt lat="51.225701307807" lon="4.449678717345">
        <ele>0.6</ele>
        <time>2020-07-03T18:42:36Z</time>
      </trkpt>
      <trkpt lat="51.225692339174" lon="4.449667653237">
        <ele>1.4</ele>
        <time>2020-07-03T18:42:56Z</time>
      </trkpt>
      <trkpt lat="51.225677167935" lon="4.449662121183">
        <ele>1.8</ele>
        <time>2020-07-03T18:42:57Z</time>
      </trkpt>
      <trkpt lat="51.225120358318" lon="4.449796818316">
        <ele>0</ele>
        <time>2020-07-03T18:43:18Z</time>
      </trkpt>
      <trkpt lat="51.224684750975" lon="4.450356561598">
        <ele>0</ele>
        <time>2020-07-03T18:43:31Z</time>
      </trkpt>
      <trkpt lat="51.224295914634" lon="4.450962237692">
        <ele>0</ele>
        <time>2020-07-03T18:43:43Z</time>
      </trkpt>
      <trkpt lat="51.224124504779" lon="4.451218807651">
        <ele>0</ele>
        <time>2020-07-03T18:43:48Z</time>
      </trkpt>
      <trkpt lat="51.224041691607" lon="4.451298435701">
        <ele>0</ele>
        <time>2020-07-03T18:43:50Z</time>
      </trkpt>
      <trkpt lat="51.223905066637" lon="4.451342440676">
        <ele>0</ele>
        <time>2020-07-03T18:43:53Z</time>
      </trkpt>
      <trkpt lat="51.22381596704" lon="4.451334980785">
        <ele>0</ele>
        <time>2020-07-03T18:43:55Z</time>
      </trkpt>
      <trkpt lat="51.223275753585" lon="4.451172707201">
        <ele>0</ele>
        <time>2020-07-03T18:44:09Z</time>
      </trkpt>
      <trkpt lat="51.222727912601" lon="4.451033483842">
        <ele>0</ele>
        <time>2020-07-03T18:44:24Z</time>
      </trkpt>
      <trkpt lat="51.222163978369" lon="4.451165834043">
        <ele>0</ele>
        <time>2020-07-03T18:44:39Z</time>
      </trkpt>
      <trkpt lat="51.221643210922" lon="4.451517035653">
        <ele>0</ele>
        <time>2020-07-03T18:44:56Z</time>
      </trkpt>
      <trkpt lat="51.221100566716" lon="4.451654834089">
        <ele>0</ele>
        <time>2020-07-03T18:45:16Z</time>
      </trkpt>
      <trkpt lat="51.220554150655" lon="4.451764469341">
        <ele>0</ele>
        <time>2020-07-03T18:45:30Z</time>
      </trkpt>
      <trkpt lat="51.219999939427" lon="4.451896400447">
        <ele>0</ele>
        <time>2020-07-03T18:45:46Z</time>
      </trkpt>
      <trkpt lat="51.219446398751" lon="4.452019782015">
        <ele>0</ele>
        <time>2020-07-03T18:45:57Z</time>
      </trkpt>
      <trkpt lat="51.219114978425" lon="4.452064541361">
        <ele>0</ele>
        <time>2020-07-03T18:46:04Z</time>
      </trkpt>
      <trkpt lat="51.219030824149" lon="4.451986338234">
        <ele>0</ele>
        <time>2020-07-03T18:46:06Z</time>
      </trkpt>
      <trkpt lat="51.218924038743" lon="4.451813251999">
        <ele>0</ele>
        <time>2020-07-03T18:46:09Z</time>
      </trkpt>
      <trkpt lat="51.218827311617" lon="4.451739742736">
        <ele>0</ele>
        <time>2020-07-03T18:46:11Z</time>
      </trkpt>
      <trkpt lat="51.218297910813" lon="4.451842001916">
        <ele>0</ele>
        <time>2020-07-03T18:46:23Z</time>
      </trkpt>
      <trkpt lat="51.218200429316" lon="4.452691256024">
        <ele>0</ele>
        <time>2020-07-03T18:46:35Z</time>
      </trkpt>
      <trkpt lat="51.218190287217" lon="4.453575797931">
        <ele>0</ele>
        <time>2020-07-03T18:46:49Z</time>
      </trkpt>
      <trkpt lat="51.218151898115" lon="4.454438798355">
        <ele>0</ele>
        <time>2020-07-03T18:47:05Z</time>
      </trkpt>
      <trkpt lat="51.218118370515" lon="4.455311521783">
        <ele>0.6</ele>
        <time>2020-07-03T18:47:21Z</time>
      </trkpt>
      <trkpt lat="51.218081406336" lon="4.456206792522">
        <ele>0.8</ele>
        <time>2020-07-03T18:47:37Z</time>
      </trkpt>
      <trkpt lat="51.218022900674" lon="4.45705772301">
        <ele>2.4</ele>
        <time>2020-07-03T18:47:52Z</time>
      </trkpt>
      <trkpt lat="51.217992390558" lon="4.457957687613">
        <ele>0</ele>
        <time>2020-07-03T18:48:09Z</time>
      </trkpt>
      <trkpt lat="51.21796456265" lon="4.458871817627">
        <ele>0</ele>
        <time>2020-07-03T18:48:24Z</time>
      </trkpt>
      <trkpt lat="51.217902117495" lon="4.459763819425">
        <ele>0</ele>
        <time>2020-07-03T18:48:39Z</time>
      </trkpt>
      <trkpt lat="51.217870433913" lon="4.460636542853">
        <ele>2</ele>
        <time>2020-07-03T18:48:52Z</time>
      </trkpt>
      <trkpt lat="51.217842941281" lon="4.461518318733">
        <ele>0.8</ele>
        <time>2020-07-03T18:49:08Z</time>
      </trkpt>
      <trkpt lat="51.217785441447" lon="4.462406129581">
        <ele>0</ele>
        <time>2020-07-03T18:49:22Z</time>
      </trkpt>
      <trkpt lat="51.217772784778" lon="4.463319924319">
        <ele>0</ele>
        <time>2020-07-03T18:49:36Z</time>
      </trkpt>
      <trkpt lat="51.217745711241" lon="4.464237071817">
        <ele>0</ele>
        <time>2020-07-03T18:49:50Z</time>
      </trkpt>
      <trkpt lat="51.217729534174" lon="4.46437763628">
        <ele>0</ele>
        <time>2020-07-03T18:49:52Z</time>
      </trkpt>
      <trkpt lat="51.217680667697" lon="4.465237283944">
        <ele>0</ele>
        <time>2020-07-03T18:50:05Z</time>
      </trkpt>
      <trkpt lat="51.217637752369" lon="4.466154096166">
        <ele>0</ele>
        <time>2020-07-03T18:50:18Z</time>
      </trkpt>
      <trkpt lat="51.217585616951" lon="4.467062526488">
        <ele>0</ele>
        <time>2020-07-03T18:50:32Z</time>
      </trkpt>
      <trkpt lat="51.217546976392" lon="4.467966346765">
        <ele>0</ele>
        <time>2020-07-03T18:50:48Z</time>
      </trkpt>
      <trkpt lat="51.217510598946" lon="4.468836639442">
        <ele>0</ele>
        <time>2020-07-03T18:51:04Z</time>
      </trkpt>
      <trkpt lat="51.217492074947" lon="4.469712883268">
        <ele>0</ele>
        <time>2020-07-03T18:51:21Z</time>
      </trkpt>
      <trkpt lat="51.217424097738" lon="4.470600107383">
        <ele>0</ele>
        <time>2020-07-03T18:51:35Z</time>
      </trkpt>
      <trkpt lat="51.2173987844" lon="4.471475261562">
        <ele>0</ele>
        <time>2020-07-03T18:51:50Z</time>
      </trkpt>
      <trkpt lat="51.217346984258" lon="4.472370532301">
        <ele>0</ele>
        <time>2020-07-03T18:52:05Z</time>
      </trkpt>
      <trkpt lat="51.21731077445" lon="4.4732272463">
        <ele>0</ele>
        <time>2020-07-03T18:52:19Z</time>
      </trkpt>
      <trkpt lat="51.217286299302" lon="4.474127043265">
        <ele>0</ele>
        <time>2020-07-03T18:52:33Z</time>
      </trkpt>
      <trkpt lat="51.217233325694" lon="4.474993061173">
        <ele>0</ele>
        <time>2020-07-03T18:52:49Z</time>
      </trkpt>
      <trkpt lat="51.217209856374" lon="4.475891517034">
        <ele>0</ele>
        <time>2020-07-03T18:53:04Z</time>
      </trkpt>
      <trkpt lat="51.217182279923" lon="4.476804557401">
        <ele>0</ele>
        <time>2020-07-03T18:53:20Z</time>
      </trkpt>
      <trkpt lat="51.216911879829" lon="4.477510648657">
        <ele>0</ele>
        <time>2020-07-03T18:53:35Z</time>
      </trkpt>
      <trkpt lat="51.216359931714" lon="4.477535459081">
        <ele>0</ele>
        <time>2020-07-03T18:53:48Z</time>
      </trkpt>
      <trkpt lat="51.216187935126" lon="4.477577033305">
        <ele>0</ele>
        <time>2020-07-03T18:53:52Z</time>
      </trkpt>
      <trkpt lat="51.215778479311" lon="4.478162760477">
        <ele>0</ele>
        <time>2020-07-03T18:54:05Z</time>
      </trkpt>
      <trkpt lat="51.21575257924" lon="4.478225624727">
        <ele>0</ele>
        <time>2020-07-03T18:54:06Z</time>
      </trkpt>
      <trkpt lat="51.215361395967" lon="4.478788553131">
        <ele>0</ele>
        <time>2020-07-03T18:54:22Z</time>
      </trkpt>
      <trkpt lat="51.214994939299" lon="4.478675565119">
        <ele>0</ele>
        <time>2020-07-03T18:54:31Z</time>
      </trkpt>
      <trkpt lat="51.214844065099" lon="4.478572970663">
        <ele>0</ele>
        <time>2020-07-03T18:54:35Z</time>
      </trkpt>
      <trkpt lat="51.214762760669" lon="4.478528295136">
        <ele>0</ele>
        <time>2020-07-03T18:54:37Z</time>
      </trkpt>
      <trkpt lat="51.214686485379" lon="4.478459144461">
        <ele>0</ele>
        <time>2020-07-03T18:54:39Z</time>
      </trkpt>
      <trkpt lat="51.21455899668" lon="4.478268037141">
        <ele>0</ele>
        <time>2020-07-03T18:54:43Z</time>
      </trkpt>
      <trkpt lat="51.214406949014" lon="4.478085144083">
        <ele>0</ele>
        <time>2020-07-03T18:54:48Z</time>
      </trkpt>
      <trkpt lat="51.213973185689" lon="4.477498913997">
        <ele>0</ele>
        <time>2020-07-03T18:55:03Z</time>
      </trkpt>
      <trkpt lat="51.2136856027" lon="4.476782932099">
        <ele>0</ele>
        <time>2020-07-03T18:55:18Z</time>
      </trkpt>
      <trkpt lat="51.213568507557" lon="4.475921775693">
        <ele>0</ele>
        <time>2020-07-03T18:55:32Z</time>
      </trkpt>
      <trkpt lat="51.213461051599" lon="4.475062630943">
        <ele>0</ele>
        <time>2020-07-03T18:55:46Z</time>
      </trkpt>
      <trkpt lat="51.213307411372" lon="4.474209521161">
        <ele>0</ele>
        <time>2020-07-03T18:56:01Z</time>
      </trkpt>
      <trkpt lat="51.213023013505" lon="4.47347283597">
        <ele>0</ele>
        <time>2020-07-03T18:56:15Z</time>
      </trkpt>
      <trkpt lat="51.212741046389" lon="4.472681836067">
        <ele>1.2</ele>
        <time>2020-07-03T18:56:33Z</time>
      </trkpt>
      <trkpt lat="51.212378110119" lon="4.472012289895">
        <ele>0</ele>
        <time>2020-07-03T18:56:49Z</time>
      </trkpt>
      <trkpt lat="51.212031350916" lon="4.471342911361">
        <ele>0</ele>
        <time>2020-07-03T18:57:06Z</time>
      </trkpt>
      <trkpt lat="51.211753742388" lon="4.47055593477">
        <ele>0.4</ele>
        <time>2020-07-03T18:57:24Z</time>
      </trkpt>
      <trkpt lat="51.211608903156" lon="4.46966829156">
        <ele>0</ele>
        <time>2020-07-03T18:57:39Z</time>
      </trkpt>
      <trkpt lat="51.2115314544" lon="4.468778636694">
        <ele>0</ele>
        <time>2020-07-03T18:57:53Z</time>
      </trkpt>
      <trkpt lat="51.211540842128" lon="4.467914881899">
        <ele>0</ele>
        <time>2020-07-03T18:58:08Z</time>
      </trkpt>
      <trkpt lat="51.211578895954" lon="4.467032938381">
        <ele>0</ele>
        <time>2020-07-03T18:58:26Z</time>
      </trkpt>
      <trkpt lat="51.211512259849" lon="4.465846228979">
        <ele>0</ele>
        <time>2020-07-03T18:58:46Z</time>
      </trkpt>
      <trkpt lat="51.211416873827" lon="4.465613044521">
        <ele>0</ele>
        <time>2020-07-03T18:58:50Z</time>
      </trkpt>
      <trkpt lat="51.211486611235" lon="4.464894464234">
        <ele>0</ele>
        <time>2020-07-03T18:59:07Z</time>
      </trkpt>
      <trkpt lat="51.211514774419" lon="4.464930422585">
        <ele>0</ele>
        <time>2020-07-03T18:59:09Z</time>
      </trkpt>
      <trkpt lat="51.211988854683" lon="4.465402658831">
        <ele>0</ele>
        <time>2020-07-03T18:59:30Z</time>
      </trkpt>
      <trkpt lat="51.212142243453" lon="4.466215451674">
        <ele>0</ele>
        <time>2020-07-03T18:59:51Z</time>
      </trkpt>
      <trkpt lat="51.212322035208" lon="4.467035285313">
        <ele>0</ele>
        <time>2020-07-03T19:00:09Z</time>
      </trkpt>
      <trkpt lat="51.212719421087" lon="4.467608691092">
        <ele>0</ele>
        <time>2020-07-03T19:00:27Z</time>
      </trkpt>
      <trkpt lat="51.212832157642" lon="4.468464483082">
        <ele>0</ele>
        <time>2020-07-03T19:00:47Z</time>
      </trkpt>
      <trkpt lat="51.213189813315" lon="4.469077786705">
        <ele>0</ele>
        <time>2020-07-03T19:01:05Z</time>
      </trkpt>
      <trkpt lat="51.213248821891" lon="4.469937434369">
        <ele>0</ele>
        <time>2020-07-03T19:01:24Z</time>
      </trkpt>
      <trkpt lat="51.213452334423" lon="4.47075626218">
        <ele>0</ele>
        <time>2020-07-03T19:01:41Z</time>
      </trkpt>
      <trkpt lat="51.213362731912" lon="4.471560254028">
        <ele>0</ele>
        <time>2020-07-03T19:01:57Z</time>
      </trkpt>
      <trkpt lat="51.213450322767" lon="4.472377489278">
        <ele>0</ele>
        <time>2020-07-03T19:02:13Z</time>
      </trkpt>
      <trkpt lat="51.213564148969" lon="4.473258175511">
        <ele>0</ele>
        <time>2020-07-03T19:02:30Z</time>
      </trkpt>
      <trkpt lat="51.213261227103" lon="4.473844824692">
        <ele>0</ele>
        <time>2020-07-03T19:02:49Z</time>
      </trkpt>
      <trkpt lat="51.213192160247" lon="4.473975330875">
        <ele>0</ele>
        <time>2020-07-03T19:02:54Z</time>
      </trkpt>
      <trkpt lat="51.213371700545" lon="4.47477370685">
        <ele>0</ele>
        <time>2020-07-03T19:03:10Z</time>
      </trkpt>
      <trkpt lat="51.213478485951" lon="4.475648106658">
        <ele>0</ele>
        <time>2020-07-03T19:03:23Z</time>
      </trkpt>
      <trkpt lat="51.213623409002" lon="4.476486548115">
        <ele>0</ele>
        <time>2020-07-03T19:03:38Z</time>
      </trkpt>
      <trkpt lat="51.213810660648" lon="4.477285007909">
        <ele>0</ele>
        <time>2020-07-03T19:03:52Z</time>
      </trkpt>
      <trkpt lat="51.214207459794" lon="4.47788506813">
        <ele>0</ele>
        <time>2020-07-03T19:04:06Z</time>
      </trkpt>
      <trkpt lat="51.214645162612" lon="4.47840977507">
        <ele>0</ele>
        <time>2020-07-03T19:04:21Z</time>
      </trkpt>
      <trkpt lat="51.215142293101" lon="4.478794588099">
        <ele>0</ele>
        <time>2020-07-03T19:04:37Z</time>
      </trkpt>
      <trkpt lat="51.215678399425" lon="4.478955688217">
        <ele>0</ele>
        <time>2020-07-03T19:04:52Z</time>
      </trkpt>
      <trkpt lat="51.21610294266" lon="4.479381321099">
        <ele>0</ele>
        <time>2020-07-03T19:05:09Z</time>
      </trkpt>
      <trkpt lat="51.216149462205" lon="4.480267790843">
        <ele>0</ele>
        <time>2020-07-03T19:05:26Z</time>
      </trkpt>
      <trkpt lat="51.216712558247" lon="4.480335768052">
        <ele>0</ele>
        <time>2020-07-03T19:05:41Z</time>
      </trkpt>
      <trkpt lat="51.21712301989" lon="4.480073498401">
        <ele>0</ele>
        <time>2020-07-03T19:06:03Z</time>
      </trkpt>
      <trkpt lat="51.217145818658" lon="4.479201361706">
        <ele>0</ele>
        <time>2020-07-03T19:06:18Z</time>
      </trkpt>
      <trkpt lat="51.217240785585" lon="4.47830164856">
        <ele>0</ele>
        <time>2020-07-03T19:06:35Z</time>
      </trkpt>
      <trkpt lat="51.217274899918" lon="4.477414256807">
        <ele>0</ele>
        <time>2020-07-03T19:06:55Z</time>
      </trkpt>
      <trkpt lat="51.217305661491" lon="4.476534324945">
        <ele>0</ele>
        <time>2020-07-03T19:07:13Z</time>
      </trkpt>
      <trkpt lat="51.217317396151" lon="4.475675431652">
        <ele>0</ele>
        <time>2020-07-03T19:07:35Z</time>
      </trkpt>
      <trkpt lat="51.217365005343" lon="4.474799606921">
        <ele>0</ele>
        <time>2020-07-03T19:07:50Z</time>
      </trkpt>
      <trkpt lat="51.2173568749" lon="4.473922189629">
        <ele>0</ele>
        <time>2020-07-03T19:08:04Z</time>
      </trkpt>
      <trkpt lat="51.217404484092" lon="4.473052232228">
        <ele>0</ele>
        <time>2020-07-03T19:08:18Z</time>
      </trkpt>
      <trkpt lat="51.217465420505" lon="4.472153944005">
        <ele>0</ele>
        <time>2020-07-03T19:08:36Z</time>
      </trkpt>
      <trkpt lat="51.217509760756" lon="4.471297984377">
        <ele>0</ele>
        <time>2020-07-03T19:08:51Z</time>
      </trkpt>
      <trkpt lat="51.217591903376" lon="4.470422327284">
        <ele>0</ele>
        <time>2020-07-03T19:09:06Z</time>
      </trkpt>
      <trkpt lat="51.217630376297" lon="4.469538204472">
        <ele>0</ele>
        <time>2020-07-03T19:09:21Z</time>
      </trkpt>
      <trkpt lat="51.217556950853" lon="4.468659194619">
        <ele>0</ele>
        <time>2020-07-03T19:09:37Z</time>
      </trkpt>
      <trkpt lat="51.217651163409" lon="4.467809940511">
        <ele>0</ele>
        <time>2020-07-03T19:09:55Z</time>
      </trkpt>
      <trkpt lat="51.217745375965" lon="4.466953310331">
        <ele>0</ele>
        <time>2020-07-03T19:10:12Z</time>
      </trkpt>
      <trkpt lat="51.217757613539" lon="4.466050244425">
        <ele>0</ele>
        <time>2020-07-03T19:10:30Z</time>
      </trkpt>
      <trkpt lat="51.217789213302" lon="4.4651722404">
        <ele>0</ele>
        <time>2020-07-03T19:10:47Z</time>
      </trkpt>
      <trkpt lat="51.21786397985" lon="4.464317118962">
        <ele>0</ele>
        <time>2020-07-03T19:11:02Z</time>
      </trkpt>
      <trkpt lat="51.217916534363" lon="4.463430733037">
        <ele>0</ele>
        <time>2020-07-03T19:11:16Z</time>
      </trkpt>
      <trkpt lat="51.217911840499" lon="4.46253948561">
        <ele>0</ele>
        <time>2020-07-03T19:11:34Z</time>
      </trkpt>
      <trkpt lat="51.21795282799" lon="4.461655446617">
        <ele>0</ele>
        <time>2020-07-03T19:11:49Z</time>
      </trkpt>
      <trkpt lat="51.217913349241" lon="4.461252193408">
        <ele>0</ele>
        <time>2020-07-03T19:11:59Z</time>
      </trkpt>
      <trkpt lat="51.217868086981" lon="4.461245906983">
        <ele>0</ele>
        <time>2020-07-03T19:12:01Z</time>
      </trkpt>
      <trkpt lat="51.217337680349" lon="4.461522174407">
        <ele>0</ele>
        <time>2020-07-03T19:12:15Z</time>
      </trkpt>
      <trkpt lat="51.21682378606" lon="4.461880332994">
        <ele>0</ele>
        <time>2020-07-03T19:12:26Z</time>
      </trkpt>
      <trkpt lat="51.21630662283" lon="4.462234216812">
        <ele>0</ele>
        <time>2020-07-03T19:12:40Z</time>
      </trkpt>
      <trkpt lat="51.215794656378" lon="4.462550717356">
        <ele>0</ele>
        <time>2020-07-03T19:12:55Z</time>
      </trkpt>
      <trkpt lat="51.215423338208" lon="4.462303702763">
        <ele>0</ele>
        <time>2020-07-03T19:13:12Z</time>
      </trkpt>
      <trkpt lat="51.215126199853" lon="4.461556540197">
        <ele>0</ele>
        <time>2020-07-03T19:13:29Z</time>
      </trkpt>
      <trkpt lat="51.214797461735" lon="4.460807282156">
        <ele>0</ele>
        <time>2020-07-03T19:13:44Z</time>
      </trkpt>
      <trkpt lat="51.214494791326" lon="4.460067579481">
        <ele>0</ele>
        <time>2020-07-03T19:13:59Z</time>
      </trkpt>
      <trkpt lat="51.214248614923" lon="4.459265599289">
        <ele>0</ele>
        <time>2020-07-03T19:14:19Z</time>
      </trkpt>
      <trkpt lat="51.214050466807" lon="4.458460685432">
        <ele>0</ele>
        <time>2020-07-03T19:14:33Z</time>
      </trkpt>
      <trkpt lat="51.214006797108" lon="4.457602881786">
        <ele>0</ele>
        <time>2020-07-03T19:14:56Z</time>
      </trkpt>
      <trkpt lat="51.213699349016" lon="4.456944483541">
        <ele>7.4</ele>
        <time>2020-07-03T19:15:14Z</time>
      </trkpt>
      <trkpt lat="51.213582086235" lon="4.456863682025">
        <ele>3.8</ele>
        <time>2020-07-03T19:15:18Z</time>
      </trkpt>
      <trkpt lat="51.213495417389" lon="4.456728984892">
        <ele>1</ele>
        <time>2020-07-03T19:15:22Z</time>
      </trkpt>
      <trkpt lat="51.213372790192" lon="4.456909698656">
        <ele>3.2</ele>
        <time>2020-07-03T19:15:29Z</time>
      </trkpt>
      <trkpt lat="51.212864763233" lon="4.456593533388">
        <ele>3.2</ele>
        <time>2020-07-03T19:15:48Z</time>
      </trkpt>
      <trkpt lat="51.212646917652" lon="4.456323049475">
        <ele>3.6</ele>
        <time>2020-07-03T19:15:59Z</time>
      </trkpt>
      <trkpt lat="51.212681870175" lon="4.455462898897">
        <ele>1.6</ele>
        <time>2020-07-03T19:16:16Z</time>
      </trkpt>
      <trkpt lat="51.212756636723" lon="4.454609705296">
        <ele>0</ele>
        <time>2020-07-03T19:16:31Z</time>
      </trkpt>
      <trkpt lat="51.212786560106" lon="4.453699347137">
        <ele>0</ele>
        <time>2020-07-03T19:16:47Z</time>
      </trkpt>
      <trkpt lat="51.212792762712" lon="4.453211604376">
        <ele>0</ele>
        <time>2020-07-03T19:16:57Z</time>
      </trkpt>
      <trkpt lat="51.21275018266" lon="4.453161983528">
        <ele>0</ele>
        <time>2020-07-03T19:16:59Z</time>
      </trkpt>
      <trkpt lat="51.212544742291" lon="4.45319869625">
        <ele>0</ele>
        <time>2020-07-03T19:17:10Z</time>
      </trkpt>
      <trkpt lat="51.213086883583" lon="4.453217639344">
        <ele>6.8</ele>
        <time>2020-07-03T19:17:28Z</time>
      </trkpt>
      <trkpt lat="51.213176150818" lon="4.453183944106">
        <ele>6.6</ele>
        <time>2020-07-03T19:17:31Z</time>
      </trkpt>
      <trkpt lat="51.213440348306" lon="4.452700895209">
        <ele>4</ele>
        <time>2020-07-03T19:17:45Z</time>
      </trkpt>
      <trkpt lat="51.213484520919" lon="4.452765016744">
        <ele>3.6</ele>
        <time>2020-07-03T19:17:47Z</time>
      </trkpt>
      <trkpt lat="51.213535901966" lon="4.453656180352">
        <ele>0</ele>
        <time>2020-07-03T19:18:02Z</time>
      </trkpt>
      <trkpt lat="51.213528693532" lon="4.453847874405">
        <ele>0</ele>
        <time>2020-07-03T19:18:05Z</time>
      </trkpt>
      <trkpt lat="51.213509666619" lon="4.454757226736">
        <ele>0</ele>
        <time>2020-07-03T19:18:19Z</time>
      </trkpt>
      <trkpt lat="51.213498434873" lon="4.455635063123">
        <ele>0</ele>
        <time>2020-07-03T19:18:33Z</time>
      </trkpt>
      <trkpt lat="51.213498853968" lon="4.456514156795">
        <ele>1.6</ele>
        <time>2020-07-03T19:18:47Z</time>
      </trkpt>
      <trkpt lat="51.213566831177" lon="4.457375480839">
        <ele>0.4</ele>
        <time>2020-07-03T19:19:03Z</time>
      </trkpt>
      <trkpt lat="51.213762045628" lon="4.458062461363">
        <ele>0</ele>
        <time>2020-07-03T19:19:18Z</time>
      </trkpt>
      <trkpt lat="51.213744024543" lon="4.45807612386">
        <ele>0</ele>
        <time>2020-07-03T19:19:20Z</time>
      </trkpt>
      <trkpt lat="51.213736480833" lon="4.458055504386">
        <ele>0</ele>
        <time>2020-07-03T19:19:21Z</time>
      </trkpt>
      <trkpt lat="51.213605723193" lon="4.458057851318">
        <ele>18</ele>
        <time>2020-07-03T19:28:38Z</time>
      </trkpt>
      <trkpt lat="51.213978633924" lon="4.458687583465">
        <ele>16.6</ele>
        <time>2020-07-03T19:29:01Z</time>
      </trkpt>
      <trkpt lat="51.214223804499" lon="4.459570197535">
        <ele>18.4</ele>
        <time>2020-07-03T19:29:19Z</time>
      </trkpt>
      <trkpt lat="51.214542149061" lon="4.460306798907">
        <ele>17.8</ele>
        <time>2020-07-03T19:29:31Z</time>
      </trkpt>
      <trkpt lat="51.214872563559" lon="4.461059493527">
        <ele>13.2</ele>
        <time>2020-07-03T19:29:46Z</time>
      </trkpt>
      <trkpt lat="51.21498731177" lon="4.461326792318">
        <ele>10.8</ele>
        <time>2020-07-03T19:29:51Z</time>
      </trkpt>
      <trkpt lat="51.215048415821" lon="4.461421004874">
        <ele>9.6</ele>
        <time>2020-07-03T19:29:53Z</time>
      </trkpt>
      <trkpt lat="51.215170791561" lon="4.461723675283">
        <ele>6.6</ele>
        <time>2020-07-03T19:29:58Z</time>
      </trkpt>
      <trkpt lat="51.215199457659" lon="4.461851666896">
        <ele>5.6</ele>
        <time>2020-07-03T19:30:00Z</time>
      </trkpt>
      <trkpt lat="51.215505145552" lon="4.462431610557">
        <ele>0.8</ele>
        <time>2020-07-03T19:30:13Z</time>
      </trkpt>
      <trkpt lat="51.215574380046" lon="4.46236849485">
        <ele>0</ele>
        <time>2020-07-03T19:30:15Z</time>
      </trkpt>
      <trkpt lat="51.21606354773" lon="4.461427039842">
        <ele>0</ele>
        <time>2020-07-03T19:30:34Z</time>
      </trkpt>
      <trkpt lat="51.216418856471" lon="4.460726396821">
        <ele>0</ele>
        <time>2020-07-03T19:30:49Z</time>
      </trkpt>
      <trkpt lat="51.216748600417" lon="4.460004882869">
        <ele>0</ele>
        <time>2020-07-03T19:31:04Z</time>
      </trkpt>
      <trkpt lat="51.217103909158" lon="4.459315890689">
        <ele>0</ele>
        <time>2020-07-03T19:31:18Z</time>
      </trkpt>
      <trkpt lat="51.217451758008" lon="4.458596053117">
        <ele>0</ele>
        <time>2020-07-03T19:31:32Z</time>
      </trkpt>
      <trkpt lat="51.217819304323" lon="4.457911503344">
        <ele>0</ele>
        <time>2020-07-03T19:31:47Z</time>
      </trkpt>
      <trkpt lat="51.218161704938" lon="4.457181942768">
        <ele>0</ele>
        <time>2020-07-03T19:32:05Z</time>
      </trkpt>
      <trkpt lat="51.218591947865" lon="4.45663527525">
        <ele>0</ele>
        <time>2020-07-03T19:32:21Z</time>
      </trkpt>
      <trkpt lat="51.219066363405" lon="4.456184580487">
        <ele>0</ele>
        <time>2020-07-03T19:32:35Z</time>
      </trkpt>
      <trkpt lat="51.219562907161" lon="4.455759618157">
        <ele>0</ele>
        <time>2020-07-03T19:32:52Z</time>
      </trkpt>
      <trkpt lat="51.219953838977" lon="4.455435741541">
        <ele>0</ele>
        <time>2020-07-03T19:33:06Z</time>
      </trkpt>
      <trkpt lat="51.219948726018" lon="4.455403471226">
        <ele>0</ele>
        <time>2020-07-03T19:33:08Z</time>
      </trkpt>
      <trkpt lat="51.21981444798" lon="4.455104991767">
        <ele>2.8</ele>
        <time>2020-07-03T19:33:24Z</time>
      </trkpt>
      <trkpt lat="51.219985354921" lon="4.455361477907">
        <ele>7</ele>
        <time>2020-07-03T19:33:34Z</time>
      </trkpt>
      <trkpt lat="51.219998263047" lon="4.455361142631">
        <ele>8</ele>
        <time>2020-07-03T19:33:36Z</time>
      </trkpt>
      <trkpt lat="51.219998346866" lon="4.45540648871">
        <ele>8.2</ele>
        <time>2020-07-03T19:33:47Z</time>
      </trkpt>
      <trkpt lat="51.219999017418" lon="4.455446470373">
        <ele>8.4</ele>
        <time>2020-07-03T19:33:48Z</time>
      </trkpt>
      <trkpt lat="51.220046458972" lon="4.45556993576">
        <ele>7.8</ele>
        <time>2020-07-03T19:33:55Z</time>
      </trkpt>
      <trkpt lat="51.220060708202" lon="4.455577144194">
        <ele>8.8</ele>
        <time>2020-07-03T19:33:57Z</time>
      </trkpt>
      <trkpt lat="51.220071101758" lon="4.455570690131">
        <ele>12.6</ele>
        <time>2020-07-03T19:34:36Z</time>
      </trkpt>
      <trkpt lat="51.22008602154" lon="4.455553339598">
        <ele>12.6</ele>
        <time>2020-07-03T19:34:38Z</time>
      </trkpt>
      <trkpt lat="51.22051768939" lon="4.454958476155">
        <ele>11</ele>
        <time>2020-07-03T19:34:57Z</time>
      </trkpt>
      <trkpt lat="51.220942064987" lon="4.454406695678">
        <ele>5.4</ele>
        <time>2020-07-03T19:35:12Z</time>
      </trkpt>
      <trkpt lat="51.221481943166" lon="4.454437373432">
        <ele>0</ele>
        <time>2020-07-03T19:35:24Z</time>
      </trkpt>
      <trkpt lat="51.221915706491" lon="4.454426141686">
        <ele>0.4</ele>
        <time>2020-07-03T19:35:33Z</time>
      </trkpt>
      <trkpt lat="51.222477293791" lon="4.454422872745">
        <ele>2.8</ele>
        <time>2020-07-03T19:35:46Z</time>
      </trkpt>
      <trkpt lat="51.223043574955" lon="4.454450784472">
        <ele>3</ele>
        <time>2020-07-03T19:36:00Z</time>
      </trkpt>
      <trkpt lat="51.22360306678" lon="4.454476265448">
        <ele>8.6</ele>
        <time>2020-07-03T19:36:14Z</time>
      </trkpt>
      <trkpt lat="51.224154511981" lon="4.454496968741">
        <ele>15.8</ele>
        <time>2020-07-03T19:36:28Z</time>
      </trkpt>
      <trkpt lat="51.224582324157" lon="4.454464446969">
        <ele>18.8</ele>
        <time>2020-07-03T19:36:41Z</time>
      </trkpt>
      <trkpt lat="51.224744933017" lon="4.454394122828">
        <ele>16.6</ele>
        <time>2020-07-03T19:36:50Z</time>
      </trkpt>
      <trkpt lat="51.224587772392" lon="4.454376688476">
        <ele>3.2</ele>
        <time>2020-07-03T19:37:00Z</time>
      </trkpt>
      <trkpt lat="51.224702436784" lon="4.454432344292">
        <ele>0</ele>
        <time>2020-07-03T19:39:14Z</time>
      </trkpt>
      <trkpt lat="51.224715512548" lon="4.454433853034">
        <ele>0</ele>
        <time>2020-07-03T19:39:15Z</time>
      </trkpt>
      <trkpt lat="51.224936878527" lon="4.454324553058">
        <ele>0</ele>
        <time>2020-07-03T19:39:26Z</time>
      </trkpt>
      <trkpt lat="51.225036874594" lon="4.453455098571">
        <ele>0</ele>
        <time>2020-07-03T19:39:46Z</time>
      </trkpt>
      <trkpt lat="51.225101918138" lon="4.452599222762">
        <ele>2.6</ele>
        <time>2020-07-03T19:40:03Z</time>
      </trkpt>
      <trkpt lat="51.225331498379" lon="4.451816940035">
        <ele>1.6</ele>
        <time>2020-07-03T19:40:22Z</time>
      </trkpt>
      <trkpt lat="51.225648837113" lon="4.451088050011">
        <ele>2.6</ele>
        <time>2020-07-03T19:40:44Z</time>
      </trkpt>
      <trkpt lat="51.225737685253" lon="4.451028454702">
        <ele>3.2</ele>
        <time>2020-07-03T19:40:48Z</time>
      </trkpt>
      <trkpt lat="51.226116882409" lon="4.451688613146">
        <ele>0</ele>
        <time>2020-07-03T19:41:04Z</time>
      </trkpt>
      <trkpt lat="51.226636644028" lon="4.451881564484">
        <ele>0</ele>
        <time>2020-07-03T19:41:20Z</time>
      </trkpt>
      <trkpt lat="51.226885083544" lon="4.45187435605">
        <ele>0.2</ele>
        <time>2020-07-03T19:41:28Z</time>
      </trkpt>
      <trkpt lat="51.226908133769" lon="4.451810234515">
        <ele>0</ele>
        <time>2020-07-03T19:41:30Z</time>
      </trkpt>
      <trkpt lat="51.226967980535" lon="4.450912281568">
        <ele>0</ele>
        <time>2020-07-03T19:41:48Z</time>
      </trkpt>
      <trkpt lat="51.227014164804" lon="4.450039977235">
        <ele>0</ele>
        <time>2020-07-03T19:42:07Z</time>
      </trkpt>
      <trkpt lat="51.226974015503" lon="4.449163481952">
        <ele>0</ele>
        <time>2020-07-03T19:42:26Z</time>
      </trkpt>
      <trkpt lat="51.227257323723" lon="4.448420342698">
        <ele>0</ele>
        <time>2020-07-03T19:42:44Z</time>
      </trkpt>
      <trkpt lat="51.22766996466" lon="4.447812068215">
        <ele>0</ele>
        <time>2020-07-03T19:42:59Z</time>
      </trkpt>
      <trkpt lat="51.228063494865" lon="4.447223742654">
        <ele>0</ele>
        <time>2020-07-03T19:43:12Z</time>
      </trkpt>
      <trkpt lat="51.228487870462" lon="4.446631226143">
        <ele>0</ele>
        <time>2020-07-03T19:43:28Z</time>
      </trkpt>
      <trkpt lat="51.228898080648" lon="4.446073159241">
        <ele>4</ele>
        <time>2020-07-03T19:43:44Z</time>
      </trkpt>
      <trkpt lat="51.229308374653" lon="4.445481313282">
        <ele>5</ele>
        <time>2020-07-03T19:43:57Z</time>
      </trkpt>
      <trkpt lat="51.229693774415" lon="4.444870272772">
        <ele>6</ele>
        <time>2020-07-03T19:44:13Z</time>
      </trkpt>
      <trkpt lat="51.229762254538" lon="4.444840517027">
        <ele>5.2</ele>
        <time>2020-07-03T19:44:16Z</time>
      </trkpt>
      <trkpt lat="51.229772312818" lon="4.444841019941">
        <ele>3.8</ele>
        <time>2020-07-03T19:44:18Z</time>
      </trkpt>
      <trkpt lat="51.229785807677" lon="4.444901201983">
        <ele>4.8</ele>
        <time>2020-07-03T19:44:42Z</time>
      </trkpt>
      <trkpt lat="51.230039108695" lon="4.445660769761">
        <ele>4.6</ele>
        <time>2020-07-03T19:44:58Z</time>
      </trkpt>
      <trkpt lat="51.230262653968" lon="4.446451853483">
        <ele>3.8</ele>
        <time>2020-07-03T19:45:12Z</time>
      </trkpt>
      <trkpt lat="51.230503549774" lon="4.447279230832">
        <ele>3</ele>
        <time>2020-07-03T19:45:25Z</time>
      </trkpt>
      <trkpt lat="51.23072097626" lon="4.448078947911">
        <ele>2.6</ele>
        <time>2020-07-03T19:45:37Z</time>
      </trkpt>
      <trkpt lat="51.23091208358" lon="4.448888052718">
        <ele>2.2</ele>
        <time>2020-07-03T19:45:49Z</time>
      </trkpt>
      <trkpt lat="51.231104783461" lon="4.449760105594">
        <ele>1.2</ele>
        <time>2020-07-03T19:46:02Z</time>
      </trkpt>
      <trkpt lat="51.231212574695" lon="4.450302163067">
        <ele>1.2</ele>
        <time>2020-07-03T19:46:10Z</time>
      </trkpt>
      <trkpt lat="51.23122556664" lon="4.450430741413">
        <ele>1.2</ele>
        <time>2020-07-03T19:46:12Z</time>
      </trkpt>
      <trkpt lat="51.230706643211" lon="4.450669290287">
        <ele>1.2</ele>
        <time>2020-07-03T19:46:26Z</time>
      </trkpt>
      <trkpt lat="51.230150671784" lon="4.450828043473">
        <ele>1.4</ele>
        <time>2020-07-03T19:46:42Z</time>
      </trkpt>
      <trkpt lat="51.229695199338" lon="4.450931895214">
        <ele>0</ele>
        <time>2020-07-03T19:46:55Z</time>
      </trkpt>
      <trkpt lat="51.229551198296" lon="4.450087502608">
        <ele>0</ele>
        <time>2020-07-03T19:47:09Z</time>
      </trkpt>
      <trkpt lat="51.229419686285" lon="4.449201284321">
        <ele>0</ele>
        <time>2020-07-03T19:47:24Z</time>
      </trkpt>
      <trkpt lat="51.22912003336" lon="4.448457306877">
        <ele>1</ele>
        <time>2020-07-03T19:47:40Z</time>
      </trkpt>
      <trkpt lat="51.22900268676" lon="4.448439034335">
        <ele>1.4</ele>
        <time>2020-07-03T19:47:45Z</time>
      </trkpt>
      <trkpt lat="51.228664980009" lon="4.449160548287">
        <ele>1.2</ele>
        <time>2020-07-03T19:47:59Z</time>
      </trkpt>
      <trkpt lat="51.228519134949" lon="4.449299687827">
        <ele>0</ele>
        <time>2020-07-03T19:48:24Z</time>
      </trkpt>
    </trkseg>
  </trk>
</gpx>